createdAt,value
2023-03-16T00:00:23.848Z,998.09
2023-03-16T00:01:23.852Z,998.08
2023-03-16T00:02:23.845Z,998.15
2023-03-16T00:03:23.868Z,998.09
2023-03-16T00:04:23.829Z,998.17
2023-03-16T00:05:23.802Z,998.13
2023-03-16T00:06:25.661Z,998.16
2023-03-16T00:07:24.781Z,998.16
2023-03-16T00:08:23.778Z,998.17
2023-03-16T00:09:23.804Z,998.18
2023-03-16T00:10:23.766Z,998.13
2023-03-16T00:11:23.764Z,998.12
2023-03-16T00:12:23.756Z,998.12
2023-03-16T00:13:23.790Z,998.18
2023-03-16T00:14:23.769Z,998.17
2023-03-16T00:15:23.733Z,998.16
2023-03-16T00:16:23.787Z,998.09
2023-03-16T00:17:23.717Z,998.19
2023-03-16T00:18:23.715Z,998.21
2023-03-16T00:19:23.736Z,998.19
2023-03-16T00:20:23.700Z,998.27
2023-03-16T00:21:23.695Z,998.15
2023-03-16T00:22:23.700Z,998.16
2023-03-16T00:23:23.676Z,998.23
2023-03-16T00:24:23.700Z,998.27
2023-03-16T00:25:23.662Z,998.28
2023-03-16T00:26:23.655Z,998.11
2023-03-16T00:27:23.646Z,998.16
2023-03-16T00:28:23.662Z,998.15
2023-03-16T00:29:23.652Z,998.16
2023-03-16T00:30:23.626Z,998.12
2023-03-16T00:31:23.644Z,998.07
2023-03-16T00:32:23.670Z,998.17
2023-03-16T00:33:23.594Z,998.15
2023-03-16T00:34:23.618Z,998.07
2023-03-16T00:35:23.584Z,998.02
2023-03-16T00:36:23.571Z,998.14
2023-03-16T00:37:23.880Z,998.17
2023-03-16T00:38:23.556Z,998.05
2023-03-16T00:39:23.576Z,998.06
2023-03-16T00:40:23.539Z,998.07
2023-03-16T00:41:23.542Z,998.07
2023-03-16T00:42:23.534Z,998.03
2023-03-16T00:43:23.526Z,998.06
2023-03-16T00:44:23.543Z,998.03
2023-03-16T00:45:23.515Z,998.00
2023-03-16T00:46:23.554Z,998.02
2023-03-16T00:47:23.490Z,998.00
2023-03-16T00:48:23.477Z,998.02
2023-03-16T00:49:23.502Z,998.05
2023-03-16T00:50:23.472Z,998.15
2023-03-16T00:51:23.469Z,998.17
2023-03-16T00:52:23.451Z,998.14
2023-03-16T00:53:23.453Z,998.14
2023-03-16T00:54:23.456Z,998.09
2023-03-16T00:55:24.440Z,998.08
2023-03-16T00:56:23.422Z,998.06
2023-03-16T00:57:23.420Z,998.15
2023-03-16T00:58:23.409Z,998.06
2023-03-16T00:59:23.431Z,998.09
2023-03-16T01:00:23.400Z,998.04
2023-03-16T01:01:23.416Z,998.02
2023-03-16T01:02:23.657Z,998.01
2023-03-16T01:03:23.464Z,998.09
2023-03-16T01:04:23.397Z,998.00
2023-03-16T01:05:23.359Z,998.05
2023-03-16T01:06:23.356Z,998.07
2023-03-16T01:07:23.344Z,998.03
2023-03-16T01:08:23.338Z,998.01
2023-03-16T01:09:23.358Z,998.05
2023-03-16T01:10:23.330Z,998.01
2023-03-16T01:11:23.322Z,998.04
2023-03-16T01:12:23.315Z,998.05
2023-03-16T01:13:23.311Z,998.04
2023-03-16T01:14:23.334Z,998.07
2023-03-16T01:15:23.290Z,998.06
2023-03-16T01:16:23.387Z,998.10
2023-03-16T01:17:23.275Z,998.07
2023-03-16T01:18:23.278Z,998.06
2023-03-16T01:19:23.289Z,998.13
2023-03-16T01:20:23.251Z,998.08
2023-03-16T01:21:23.248Z,998.05
2023-03-16T01:22:23.241Z,998.04
2023-03-16T01:23:23.231Z,997.99
2023-03-16T01:24:23.250Z,998.01
2023-03-16T01:25:23.218Z,997.94
2023-03-16T01:26:23.229Z,997.92
2023-03-16T01:27:23.199Z,997.99
2023-03-16T01:28:23.179Z,997.99
2023-03-16T01:29:24.209Z,998.02
2023-03-16T01:30:23.172Z,998.01
2023-03-16T01:31:23.251Z,998.02
2023-03-16T01:32:23.176Z,997.95
2023-03-16T01:33:23.157Z,997.98
2023-03-16T01:34:23.170Z,997.98
2023-03-16T01:35:23.171Z,997.89
2023-03-16T01:36:23.132Z,997.85
2023-03-16T01:37:23.119Z,997.88
2023-03-16T01:38:23.117Z,997.88
2023-03-16T01:39:23.161Z,997.90
2023-03-16T01:40:23.104Z,997.86
2023-03-16T01:41:23.097Z,997.83
2023-03-16T01:42:23.093Z,997.87
2023-03-16T01:43:23.087Z,997.84
2023-03-16T01:44:23.105Z,997.77
2023-03-16T01:45:23.068Z,997.84
2023-03-16T01:46:23.112Z,997.81
2023-03-16T01:47:23.054Z,997.78
2023-03-16T01:48:24.805Z,997.70
2023-03-16T01:49:24.085Z,997.68
2023-03-16T01:50:23.032Z,997.67
2023-03-16T01:51:23.034Z,997.69
2023-03-16T01:52:23.017Z,997.70
2023-03-16T01:53:23.014Z,997.72
2023-03-16T01:54:23.055Z,997.71
2023-03-16T01:55:22.996Z,997.71
2023-03-16T01:56:22.990Z,997.75
2023-03-16T01:57:22.976Z,997.71
2023-03-16T01:58:22.972Z,997.69
2023-03-16T01:59:22.965Z,997.67
2023-03-16T02:00:22.987Z,997.72
2023-03-16T02:01:22.965Z,997.65
2023-03-16T02:02:22.946Z,997.67
2023-03-16T02:03:22.948Z,997.69
2023-03-16T02:04:23.071Z,997.63
2023-03-16T02:05:22.966Z,997.59
2023-03-16T02:06:22.925Z,997.54
2023-03-16T02:07:22.906Z,997.58
2023-03-16T02:08:22.906Z,997.56
2023-03-16T02:09:22.895Z,997.55
2023-03-16T02:10:22.910Z,997.56
2023-03-16T02:11:22.885Z,997.60
2023-03-16T02:12:22.884Z,997.57
2023-03-16T02:13:22.876Z,997.68
2023-03-16T02:14:22.859Z,997.66
2023-03-16T02:15:22.876Z,997.65
2023-03-16T02:16:22.972Z,997.67
2023-03-16T02:17:22.836Z,997.69
2023-03-16T02:18:22.826Z,997.72
2023-03-16T02:19:22.821Z,997.72
2023-03-16T02:20:22.835Z,997.70
2023-03-16T02:21:22.810Z,997.74
2023-03-16T02:22:22.793Z,997.74
2023-03-16T02:23:22.783Z,997.74
2023-03-16T02:24:22.821Z,997.71
2023-03-16T02:25:22.799Z,997.63
2023-03-16T02:26:22.762Z,997.63
2023-03-16T02:27:22.765Z,997.60
2023-03-16T02:28:22.856Z,997.63
2023-03-16T02:29:22.748Z,997.62
2023-03-16T02:30:22.765Z,997.65
2023-03-16T02:31:22.857Z,997.69
2023-03-16T02:32:22.838Z,997.72
2023-03-16T02:33:22.737Z,997.73
2023-03-16T02:34:22.711Z,997.67
2023-03-16T02:35:22.732Z,997.74
2023-03-16T02:36:22.693Z,997.66
2023-03-16T02:37:22.691Z,997.64
2023-03-16T02:38:22.682Z,997.59
2023-03-16T02:39:22.681Z,997.70
2023-03-16T02:40:22.683Z,997.61
2023-03-16T02:41:22.652Z,997.61
2023-03-16T02:42:22.644Z,997.67
2023-03-16T02:43:22.637Z,997.68
2023-03-16T02:44:22.643Z,997.63
2023-03-16T02:45:22.650Z,997.57
2023-03-16T02:46:22.630Z,997.63
2023-03-16T02:47:22.613Z,997.61
2023-03-16T02:48:22.614Z,997.54
2023-03-16T02:49:22.593Z,997.55
2023-03-16T02:50:22.616Z,997.54
2023-03-16T02:51:22.580Z,997.50
2023-03-16T02:52:22.573Z,997.51
2023-03-16T02:53:22.566Z,997.44
2023-03-16T02:54:22.567Z,997.47
2023-03-16T02:55:22.589Z,997.41
2023-03-16T02:56:22.562Z,997.42
2023-03-16T02:57:22.548Z,997.46
2023-03-16T02:58:22.528Z,997.40
2023-03-16T02:59:22.522Z,997.40
2023-03-16T03:00:22.553Z,997.40
2023-03-16T03:01:22.508Z,997.34
2023-03-16T03:02:22.511Z,997.28
2023-03-16T03:03:22.518Z,997.27
2023-03-16T03:04:22.493Z,997.29
2023-03-16T03:05:22.524Z,997.30
2023-03-16T03:06:22.475Z,997.30
2023-03-16T03:07:22.455Z,997.30
2023-03-16T03:08:23.469Z,997.29
2023-03-16T03:09:22.456Z,997.27
2023-03-16T03:10:22.473Z,997.31
2023-03-16T03:11:22.440Z,997.21
2023-03-16T03:12:22.423Z,997.26
2023-03-16T03:13:22.430Z,997.29
2023-03-16T03:14:22.417Z,997.27
2023-03-16T03:15:22.433Z,997.27
2023-03-16T03:16:22.413Z,997.29
2023-03-16T03:17:22.391Z,997.28
2023-03-16T03:18:22.391Z,997.29
2023-03-16T03:19:22.376Z,997.37
2023-03-16T03:20:22.410Z,997.33
2023-03-16T03:21:22.362Z,997.36
2023-03-16T03:22:22.362Z,997.34
2023-03-16T03:23:22.357Z,997.31
2023-03-16T03:24:22.339Z,997.31
2023-03-16T03:25:22.378Z,997.35
2023-03-16T03:26:22.325Z,997.35
2023-03-16T03:27:22.377Z,997.36
2023-03-16T03:28:22.308Z,997.36
2023-03-16T03:29:22.308Z,997.34
2023-03-16T03:30:22.330Z,997.35
2023-03-16T03:31:23.320Z,997.29
2023-03-16T03:32:22.280Z,997.29
2023-03-16T03:33:22.273Z,997.28
2023-03-16T03:34:22.275Z,997.22
2023-03-16T03:35:22.285Z,997.24
2023-03-16T03:36:22.255Z,997.30
2023-03-16T03:37:22.241Z,997.28
2023-03-16T03:38:22.239Z,997.27
2023-03-16T03:39:22.229Z,997.23
2023-03-16T03:40:22.219Z,997.24
2023-03-16T03:41:22.248Z,997.25
2023-03-16T03:42:22.207Z,997.17
2023-03-16T03:43:22.208Z,997.13
2023-03-16T03:44:22.194Z,997.13
2023-03-16T03:45:22.198Z,997.18
2023-03-16T03:46:22.298Z,997.19
2023-03-16T03:47:22.187Z,997.21
2023-03-16T03:48:22.175Z,997.13
2023-03-16T03:49:22.170Z,997.19
2023-03-16T03:50:22.155Z,997.22
2023-03-16T03:51:22.182Z,997.18
2023-03-16T03:52:22.146Z,997.16
2023-03-16T03:53:22.137Z,997.18
2023-03-16T03:54:22.131Z,997.20
2023-03-16T03:55:22.123Z,997.15
2023-03-16T03:56:22.131Z,997.19
2023-03-16T03:57:22.109Z,997.16
2023-03-16T03:58:22.106Z,997.16
2023-03-16T03:59:22.084Z,997.20
2023-03-16T04:00:22.147Z,997.17
2023-03-16T04:01:22.102Z,997.13
2023-03-16T04:02:22.267Z,997.11
2023-03-16T04:03:22.124Z,997.10
2023-03-16T04:04:22.047Z,997.13
2023-03-16T04:05:23.046Z,997.15
2023-03-16T04:06:22.064Z,997.11
2023-03-16T04:07:22.037Z,997.14
2023-03-16T04:08:22.025Z,997.17
2023-03-16T04:09:22.023Z,997.14
2023-03-16T04:10:22.007Z,997.19
2023-03-16T04:11:22.029Z,997.17
2023-03-16T04:12:21.993Z,997.11
2023-03-16T04:13:21.986Z,997.11
2023-03-16T04:14:21.985Z,997.10
2023-03-16T04:15:21.968Z,997.13
2023-03-16T04:16:22.076Z,997.13
2023-03-16T04:17:21.961Z,997.14
2023-03-16T04:18:21.948Z,997.16
2023-03-16T04:19:21.944Z,997.18
2023-03-16T04:20:21.935Z,997.22
2023-03-16T04:21:21.967Z,997.16
2023-03-16T04:22:21.917Z,997.18
2023-03-16T04:23:21.914Z,997.24
2023-03-16T04:24:21.907Z,997.18
2023-03-16T04:25:21.905Z,997.16
2023-03-16T04:26:21.926Z,997.24
2023-03-16T04:27:21.883Z,997.24
2023-03-16T04:28:21.882Z,997.23
2023-03-16T04:29:21.870Z,997.27
2023-03-16T04:30:21.866Z,997.29
2023-03-16T04:31:21.883Z,997.22
2023-03-16T04:32:21.853Z,997.24
2023-03-16T04:33:21.838Z,997.21
2023-03-16T04:34:21.830Z,997.22
2023-03-16T04:35:21.823Z,997.17
2023-03-16T04:36:21.848Z,997.26
2023-03-16T04:37:21.808Z,997.33
2023-03-16T04:38:21.805Z,997.25
2023-03-16T04:39:21.800Z,997.31
2023-03-16T04:40:21.790Z,997.33
2023-03-16T04:41:21.807Z,997.27
2023-03-16T04:42:21.777Z,997.25
2023-03-16T04:43:21.767Z,997.31
2023-03-16T04:44:21.777Z,997.27
2023-03-16T04:45:21.753Z,997.25
2023-03-16T04:46:21.834Z,997.33
2023-03-16T04:47:21.747Z,997.26
2023-03-16T04:48:21.738Z,997.16
2023-03-16T04:49:21.751Z,997.30
2023-03-16T04:50:21.732Z,997.23
2023-03-16T04:51:21.743Z,997.22
2023-03-16T04:52:21.711Z,997.26
2023-03-16T04:53:21.706Z,997.22
2023-03-16T04:54:21.697Z,997.19
2023-03-16T04:55:21.698Z,997.17
2023-03-16T04:56:21.701Z,997.13
2023-03-16T04:57:21.678Z,997.11
2023-03-16T04:58:21.665Z,997.07
2023-03-16T04:59:21.653Z,997.12
2023-03-16T05:00:21.678Z,997.01
2023-03-16T05:01:21.721Z,997.07
2023-03-16T05:02:21.646Z,997.03
2023-03-16T05:03:21.633Z,997.04
2023-03-16T05:04:21.625Z,996.99
2023-03-16T05:05:21.704Z,997.06
2023-03-16T05:06:21.638Z,997.01
2023-03-16T05:07:21.606Z,996.95
2023-03-16T05:08:21.601Z,996.91
2023-03-16T05:09:21.594Z,996.96
2023-03-16T05:10:21.588Z,996.95
2023-03-16T05:11:21.597Z,996.95
2023-03-16T05:12:21.577Z,996.93
2023-03-16T05:13:21.573Z,996.97
2023-03-16T05:14:21.557Z,996.98
2023-03-16T05:15:21.552Z,997.04
2023-03-16T05:16:21.586Z,997.04
2023-03-16T05:17:21.535Z,996.99
2023-03-16T05:18:21.557Z,997.04
2023-03-16T05:19:21.513Z,997.07
2023-03-16T05:20:21.507Z,997.05
2023-03-16T05:21:21.531Z,997.18
2023-03-16T05:22:21.504Z,997.11
2023-03-16T05:23:21.517Z,997.10
2023-03-16T05:24:21.485Z,997.12
2023-03-16T05:25:21.472Z,997.15
2023-03-16T05:26:21.491Z,996.97
2023-03-16T05:27:21.461Z,997.07
2023-03-16T05:28:21.457Z,997.02
2023-03-16T05:29:21.439Z,997.00
2023-03-16T05:30:21.435Z,997.05
2023-03-16T05:31:22.504Z,997.02
2023-03-16T05:32:21.421Z,997.13
2023-03-16T05:33:21.429Z,997.12
2023-03-16T05:34:21.411Z,997.07
2023-03-16T05:35:23.695Z,997.16
2023-03-16T05:36:22.424Z,997.08
2023-03-16T05:37:21.389Z,997.18
2023-03-16T05:38:21.376Z,997.12
2023-03-16T05:39:21.376Z,997.16
2023-03-16T05:40:21.366Z,997.13
2023-03-16T05:41:21.421Z,997.18
2023-03-16T05:42:21.354Z,997.16
2023-03-16T05:43:21.342Z,997.11
2023-03-16T05:44:21.333Z,997.11
2023-03-16T05:45:21.328Z,997.13
2023-03-16T05:46:21.360Z,997.16
2023-03-16T05:47:21.316Z,997.18
2023-03-16T05:48:21.325Z,997.18
2023-03-16T05:49:21.310Z,997.21
2023-03-16T05:50:21.322Z,997.20
2023-03-16T05:51:21.307Z,997.24
2023-03-16T05:52:21.271Z,997.12
2023-03-16T05:53:21.277Z,997.18
2023-03-16T05:54:21.257Z,997.21
2023-03-16T05:55:21.250Z,997.14
2023-03-16T05:56:21.267Z,997.19
2023-03-16T05:57:21.232Z,997.17
2023-03-16T05:58:21.234Z,997.18
2023-03-16T05:59:21.224Z,997.22
2023-03-16T06:00:21.214Z,997.19
2023-03-16T06:01:21.231Z,997.17
2023-03-16T06:02:21.204Z,997.20
2023-03-16T06:03:21.194Z,997.21
2023-03-16T06:04:21.192Z,997.24
2023-03-16T06:05:21.177Z,997.20
2023-03-16T06:06:21.206Z,997.16
2023-03-16T06:07:21.170Z,997.22
2023-03-16T06:08:21.179Z,997.26
2023-03-16T06:09:21.177Z,997.30
2023-03-16T06:10:21.152Z,997.20
2023-03-16T06:11:21.160Z,997.18
2023-03-16T06:12:21.129Z,997.21
2023-03-16T06:13:21.120Z,997.22
2023-03-16T06:14:21.127Z,997.26
2023-03-16T06:15:21.111Z,997.26
2023-03-16T06:16:21.196Z,997.31
2023-03-16T06:17:21.088Z,997.39
2023-03-16T06:18:21.095Z,997.30
2023-03-16T06:19:21.082Z,997.33
2023-03-16T06:20:21.060Z,997.34
2023-03-16T06:21:21.098Z,997.35
2023-03-16T06:22:21.094Z,997.35
2023-03-16T06:23:21.051Z,997.27
2023-03-16T06:24:21.045Z,997.32
2023-03-16T06:25:21.033Z,997.24
2023-03-16T06:26:21.076Z,997.26
2023-03-16T06:27:21.023Z,997.24
2023-03-16T06:28:21.006Z,997.20
2023-03-16T06:29:21.006Z,997.29
2023-03-16T06:30:21.003Z,997.30
2023-03-16T06:31:21.019Z,997.24
2023-03-16T06:32:20.997Z,997.21
2023-03-16T06:33:20.965Z,997.29
2023-03-16T06:34:21.980Z,997.22
2023-03-16T06:35:20.956Z,997.31
2023-03-16T06:36:20.976Z,997.21
2023-03-16T06:37:20.940Z,997.19
2023-03-16T06:38:20.943Z,997.18
2023-03-16T06:39:20.923Z,997.25
2023-03-16T06:40:20.918Z,997.23
2023-03-16T06:41:20.919Z,997.19
2023-03-16T06:42:20.935Z,997.18
2023-03-16T06:43:20.888Z,997.24
2023-03-16T06:44:20.891Z,997.25
2023-03-16T06:45:20.888Z,997.18
2023-03-16T06:46:20.914Z,997.17
2023-03-16T06:47:20.891Z,997.30
2023-03-16T06:48:20.860Z,997.23
2023-03-16T06:49:20.862Z,997.33
2023-03-16T06:50:20.845Z,997.23
2023-03-16T06:51:20.833Z,997.25
2023-03-16T06:52:20.859Z,997.31
2023-03-16T06:53:20.824Z,997.28
2023-03-16T06:54:20.820Z,997.33
2023-03-16T06:55:20.809Z,997.27
2023-03-16T06:56:20.802Z,997.33
2023-03-16T06:57:20.816Z,997.47
2023-03-16T06:58:20.782Z,997.27
2023-03-16T06:59:20.778Z,997.30
2023-03-16T07:00:20.767Z,997.32
2023-03-16T07:01:20.772Z,997.28
2023-03-16T07:02:21.793Z,997.44
2023-03-16T07:03:20.738Z,997.33
2023-03-16T07:04:20.839Z,997.37
2023-03-16T07:05:20.726Z,997.43
2023-03-16T07:06:20.726Z,997.44
2023-03-16T07:07:20.736Z,997.40
2023-03-16T07:08:20.700Z,997.45
2023-03-16T07:09:20.694Z,997.45
2023-03-16T07:10:20.678Z,997.48
2023-03-16T07:11:21.680Z,997.40
2023-03-16T07:12:20.691Z,997.47
2023-03-16T07:13:20.654Z,997.38
2023-03-16T07:14:20.649Z,997.41
2023-03-16T07:15:20.648Z,997.36
2023-03-16T07:16:20.696Z,997.35
2023-03-16T07:17:20.662Z,997.43
2023-03-16T07:18:20.621Z,997.42
2023-03-16T07:19:20.612Z,997.46
2023-03-16T07:20:22.928Z,997.37
2023-03-16T07:21:20.599Z,997.47
2023-03-16T07:22:20.622Z,997.59
2023-03-16T07:23:20.576Z,997.55
2023-03-16T07:24:20.570Z,997.57
2023-03-16T07:25:20.575Z,997.56
2023-03-16T07:26:20.562Z,997.60
2023-03-16T07:27:20.572Z,997.55
2023-03-16T07:28:20.545Z,997.55
2023-03-16T07:29:20.539Z,997.51
2023-03-16T07:30:20.532Z,997.43
2023-03-16T07:31:20.608Z,997.41
2023-03-16T07:32:20.541Z,997.44
2023-03-16T07:33:20.503Z,997.48
2023-03-16T07:34:20.511Z,997.44
2023-03-16T07:35:20.486Z,997.39
2023-03-16T07:36:20.535Z,997.45
2023-03-16T07:37:25.511Z,997.40
2023-03-16T07:38:22.472Z,997.43
2023-03-16T07:39:20.460Z,997.46
2023-03-16T07:40:20.452Z,997.41
2023-03-16T07:41:20.453Z,997.40
2023-03-16T07:42:20.465Z,997.39
2023-03-16T07:43:20.440Z,997.44
2023-03-16T07:44:20.424Z,997.53
2023-03-16T07:45:20.412Z,997.45
2023-03-16T07:46:20.463Z,997.40
2023-03-16T07:47:20.430Z,997.37
2023-03-16T07:48:20.388Z,997.43
2023-03-16T07:49:20.378Z,997.36
2023-03-16T07:50:20.377Z,997.35
2023-03-16T07:51:20.363Z,997.32
2023-03-16T07:52:20.386Z,997.37
2023-03-16T07:53:20.344Z,997.36
2023-03-16T07:54:20.338Z,997.41
2023-03-16T07:55:20.331Z,997.35
2023-03-16T07:56:20.320Z,997.37
2023-03-16T07:57:20.338Z,997.41
2023-03-16T07:58:20.309Z,997.43
2023-03-16T07:59:21.017Z,997.41
2023-03-16T08:00:21.312Z,997.43
2023-03-16T08:01:20.286Z,997.37
2023-03-16T08:02:20.388Z,997.44
2023-03-16T08:03:20.300Z,997.46
2023-03-16T08:04:20.259Z,997.50
2023-03-16T08:05:20.259Z,997.50
2023-03-16T08:06:20.253Z,997.45
2023-03-16T08:07:20.270Z,997.46
2023-03-16T08:08:20.238Z,997.45
2023-03-16T08:09:20.231Z,997.39
2023-03-16T08:10:20.221Z,997.45
2023-03-16T08:11:20.210Z,997.39
2023-03-16T08:12:20.261Z,997.33
2023-03-16T08:13:20.201Z,997.40
2023-03-16T08:14:20.200Z,997.36
2023-03-16T08:15:20.187Z,997.43
2023-03-16T08:16:22.041Z,997.37
2023-03-16T08:17:21.209Z,997.38
2023-03-16T08:18:20.181Z,997.42
2023-03-16T08:19:20.162Z,997.49
2023-03-16T08:20:20.151Z,997.48
2023-03-16T08:21:20.169Z,997.42
2023-03-16T08:22:20.160Z,997.45
2023-03-16T08:23:20.187Z,997.42
2023-03-16T08:24:20.123Z,997.35
2023-03-16T08:25:20.127Z,997.39
2023-03-16T08:26:20.112Z,997.39
2023-03-16T08:27:20.122Z,997.37
2023-03-16T08:28:20.091Z,997.41
2023-03-16T08:29:20.085Z,997.38
2023-03-16T08:30:20.073Z,997.45
2023-03-16T08:31:20.114Z,997.43
2023-03-16T08:32:20.095Z,997.37
2023-03-16T08:33:22.896Z,997.42
2023-03-16T08:34:20.056Z,997.32
2023-03-16T08:35:20.047Z,997.33
2023-03-16T08:36:20.020Z,997.37
2023-03-16T08:37:20.052Z,997.26
2023-03-16T08:38:20.002Z,997.24
2023-03-16T08:39:20.001Z,997.32
2023-03-16T08:40:19.991Z,997.29
2023-03-16T08:41:19.994Z,997.29
2023-03-16T08:42:20.000Z,997.24
2023-03-16T08:43:19.997Z,997.29
2023-03-16T08:44:19.970Z,997.24
2023-03-16T08:45:20.006Z,997.24
2023-03-16T08:46:19.988Z,997.19
2023-03-16T08:47:19.981Z,997.34
2023-03-16T08:48:19.939Z,997.33
2023-03-16T08:49:19.924Z,997.26
2023-03-16T08:50:19.943Z,997.26
2023-03-16T08:51:19.916Z,997.20
2023-03-16T08:52:19.923Z,997.20
2023-03-16T08:53:19.928Z,997.30
2023-03-16T08:54:19.903Z,997.32
2023-03-16T08:55:19.879Z,997.32
2023-03-16T08:56:19.893Z,997.35
2023-03-16T08:57:19.906Z,997.30
2023-03-16T08:58:19.869Z,997.26
2023-03-16T08:59:29.490Z,997.25
2023-03-16T09:00:21.846Z,997.25
2023-03-16T09:01:19.888Z,997.28
2023-03-16T09:02:20.004Z,997.25
2023-03-16T09:03:19.824Z,997.16
2023-03-16T09:04:19.867Z,997.28
2023-03-16T09:05:19.806Z,997.27
2023-03-16T09:06:19.812Z,997.20
2023-03-16T09:07:19.787Z,997.27
2023-03-16T09:08:19.807Z,997.24
2023-03-16T09:09:19.773Z,997.21
2023-03-16T09:10:19.802Z,997.28
2023-03-16T09:11:19.791Z,997.21
2023-03-16T09:12:19.802Z,997.16
2023-03-16T09:13:19.744Z,997.16
2023-03-16T09:14:19.755Z,997.17
2023-03-16T09:15:19.726Z,997.22
2023-03-16T09:16:19.734Z,997.23
2023-03-16T09:17:19.714Z,997.22
2023-03-16T09:18:19.728Z,997.19
2023-03-16T09:19:19.690Z,997.12
2023-03-16T09:20:26.149Z,997.13
2023-03-16T09:21:21.675Z,997.17
2023-03-16T09:22:19.857Z,997.20
2023-03-16T09:23:19.695Z,997.11
2023-03-16T09:24:19.656Z,997.09
2023-03-16T09:25:19.652Z,997.11
2023-03-16T09:26:19.650Z,997.06
2023-03-16T09:27:19.697Z,997.01
2023-03-16T09:28:21.688Z,996.99
2023-03-16T09:29:20.615Z,997.01
2023-03-16T09:30:19.609Z,996.93
2023-03-16T09:31:19.662Z,996.98
2023-03-16T09:32:19.617Z,997.01
2023-03-16T09:33:19.618Z,996.98
2023-03-16T09:34:19.583Z,997.01
2023-03-16T09:35:19.581Z,996.94
2023-03-16T09:36:19.613Z,997.01
2023-03-16T09:37:19.559Z,996.99
2023-03-16T09:38:19.595Z,996.99
2023-03-16T09:39:19.553Z,996.96
2023-03-16T09:40:19.539Z,996.93
2023-03-16T09:41:19.532Z,996.88
2023-03-16T09:42:19.518Z,996.95
2023-03-16T09:43:19.551Z,996.90
2023-03-16T09:44:19.514Z,996.89
2023-03-16T09:45:19.501Z,996.86
2023-03-16T09:46:19.515Z,996.84
2023-03-16T09:47:19.497Z,996.86
2023-03-16T09:48:19.498Z,996.78
2023-03-16T09:49:19.474Z,996.83
2023-03-16T09:50:19.490Z,996.83
2023-03-16T09:51:19.506Z,996.80
2023-03-16T09:52:19.446Z,996.81
2023-03-16T09:53:19.468Z,996.83
2023-03-16T09:54:19.434Z,996.85
2023-03-16T09:55:19.424Z,996.83
2023-03-16T09:56:19.419Z,996.78
2023-03-16T09:57:19.402Z,996.83
2023-03-16T09:58:20.441Z,996.78
2023-03-16T09:59:19.382Z,996.73
2023-03-16T10:00:19.418Z,996.75
2023-03-16T10:01:19.444Z,996.69
2023-03-16T10:02:19.363Z,996.79
2023-03-16T10:03:19.382Z,996.76
2023-03-16T10:04:19.378Z,996.81
2023-03-16T10:05:19.337Z,996.82
2023-03-16T10:06:19.346Z,996.76
2023-03-16T10:07:19.319Z,996.78
2023-03-16T10:08:19.338Z,996.77
2023-03-16T10:09:19.303Z,996.75
2023-03-16T10:10:19.291Z,996.70
2023-03-16T10:11:19.294Z,996.78
2023-03-16T10:12:19.284Z,996.74
2023-03-16T10:13:19.323Z,996.72
2023-03-16T10:14:19.270Z,996.73
2023-03-16T10:15:19.328Z,996.67
2023-03-16T10:16:19.329Z,996.69
2023-03-16T10:17:19.248Z,996.66
2023-03-16T10:18:19.256Z,996.70
2023-03-16T10:19:19.224Z,996.64
2023-03-16T10:20:19.217Z,996.70
2023-03-16T10:21:19.214Z,996.72
2023-03-16T10:22:19.203Z,996.62
2023-03-16T10:23:19.221Z,996.73
2023-03-16T10:24:19.188Z,996.64
2023-03-16T10:25:19.186Z,996.62
2023-03-16T10:26:19.199Z,996.60
2023-03-16T10:27:19.165Z,996.62
2023-03-16T10:28:19.189Z,996.55
2023-03-16T10:29:19.181Z,996.56
2023-03-16T10:30:19.187Z,996.54
2023-03-16T10:31:19.529Z,996.52
2023-03-16T10:32:19.124Z,996.56
2023-03-16T10:33:19.192Z,996.57
2023-03-16T10:34:19.113Z,996.55
2023-03-16T10:35:19.107Z,996.64
2023-03-16T10:36:19.123Z,996.62
2023-03-16T10:37:19.095Z,996.53
2023-03-16T10:38:19.119Z,996.56
2023-03-16T10:39:19.072Z,996.52
2023-03-16T10:40:19.071Z,996.56
2023-03-16T10:41:19.109Z,996.55
2023-03-16T10:42:19.043Z,996.51
2023-03-16T10:43:19.078Z,996.46
2023-03-16T10:44:19.032Z,996.45
2023-03-16T10:45:19.025Z,996.39
2023-03-16T10:46:19.142Z,996.39
2023-03-16T10:47:19.043Z,996.44
2023-03-16T10:48:18.998Z,996.42
2023-03-16T10:49:19.017Z,996.42
2023-03-16T10:50:19.019Z,996.36
2023-03-16T10:51:18.976Z,996.30
2023-03-16T10:52:18.981Z,996.32
2023-03-16T10:53:18.967Z,996.28
2023-03-16T10:54:18.990Z,996.34
2023-03-16T10:55:18.940Z,996.27
2023-03-16T10:56:18.940Z,996.31
2023-03-16T10:57:18.930Z,996.24
2023-03-16T10:58:18.921Z,996.26
2023-03-16T10:59:18.939Z,996.23
2023-03-16T11:00:18.957Z,996.18
2023-03-16T11:01:19.062Z,996.20
2023-03-16T11:02:18.892Z,996.26
2023-03-16T11:03:18.879Z,996.26
2023-03-16T11:04:18.921Z,996.24
2023-03-16T11:05:18.868Z,996.29
2023-03-16T11:06:18.882Z,996.33
2023-03-16T11:07:18.855Z,996.26
2023-03-16T11:08:18.850Z,996.27
2023-03-16T11:09:18.860Z,996.22
2023-03-16T11:10:18.825Z,996.24
2023-03-16T11:11:19.814Z,996.26
2023-03-16T11:12:18.816Z,996.20
2023-03-16T11:13:18.809Z,996.21
2023-03-16T11:14:18.827Z,996.21
2023-03-16T11:15:25.913Z,996.10
2023-03-16T11:16:20.810Z,996.22
2023-03-16T11:17:18.778Z,996.25
2023-03-16T11:18:18.767Z,996.16
2023-03-16T11:19:18.784Z,996.16
2023-03-16T11:20:18.827Z,996.11
2023-03-16T11:21:18.749Z,996.12
2023-03-16T11:22:18.748Z,996.17
2023-03-16T11:23:18.734Z,996.15
2023-03-16T11:24:18.778Z,996.08
2023-03-16T11:25:18.713Z,996.10
2023-03-16T11:26:18.716Z,996.08
2023-03-16T11:27:18.703Z,996.10
2023-03-16T11:28:18.693Z,996.05
2023-03-16T11:29:18.711Z,996.13
2023-03-16T11:30:18.755Z,996.15
2023-03-16T11:31:18.742Z,996.18
2023-03-16T11:32:18.661Z,996.14
2023-03-16T11:33:18.654Z,996.14
2023-03-16T11:34:18.663Z,996.15
2023-03-16T11:35:18.684Z,996.08
2023-03-16T11:36:18.651Z,996.05
2023-03-16T11:37:18.626Z,996.11
2023-03-16T11:38:18.613Z,996.05
2023-03-16T11:39:18.632Z,996.09
2023-03-16T11:40:18.591Z,996.03
2023-03-16T11:41:18.601Z,995.95
2023-03-16T11:42:18.565Z,995.99
2023-03-16T11:43:19.582Z,996.02
2023-03-16T11:44:18.587Z,996.03
2023-03-16T11:45:18.558Z,995.99
2023-03-16T11:46:18.600Z,996.03
2023-03-16T11:47:18.532Z,995.99
2023-03-16T11:48:18.533Z,996.00
2023-03-16T11:49:18.524Z,995.91
2023-03-16T11:50:18.535Z,995.83
2023-03-16T11:51:18.508Z,995.85
2023-03-16T11:52:18.496Z,995.91
2023-03-16T11:53:18.484Z,995.87
2023-03-16T11:54:18.480Z,995.81
2023-03-16T11:55:18.493Z,995.74
2023-03-16T11:56:18.456Z,995.76
2023-03-16T11:57:18.450Z,995.80
2023-03-16T11:58:18.443Z,995.82
2023-03-16T11:59:18.441Z,995.78
2023-03-16T12:00:18.454Z,995.91
2023-03-16T12:01:18.451Z,995.85
2023-03-16T12:02:18.563Z,995.90
2023-03-16T12:03:18.420Z,995.78
2023-03-16T12:04:18.463Z,995.83
2023-03-16T12:05:18.412Z,995.78
2023-03-16T12:06:23.161Z,995.77
2023-03-16T12:07:20.418Z,995.77
2023-03-16T12:08:18.362Z,995.82
2023-03-16T12:09:18.346Z,995.78
2023-03-16T12:10:19.364Z,995.79
2023-03-16T12:11:18.332Z,995.80
2023-03-16T12:12:18.326Z,995.88
2023-03-16T12:13:18.318Z,995.84
2023-03-16T12:14:18.314Z,995.78
2023-03-16T12:15:18.334Z,995.86
2023-03-16T12:16:18.334Z,995.76
2023-03-16T12:17:18.288Z,995.73
2023-03-16T12:18:18.291Z,995.77
2023-03-16T12:19:18.292Z,995.87
2023-03-16T12:20:18.289Z,995.81
2023-03-16T12:21:18.253Z,995.74
2023-03-16T12:22:18.238Z,995.70
2023-03-16T12:23:18.235Z,995.71
2023-03-16T12:24:18.228Z,995.71
2023-03-16T12:25:18.255Z,995.65
2023-03-16T12:26:18.222Z,995.54
2023-03-16T12:27:18.200Z,995.51
2023-03-16T12:28:18.193Z,995.51